Flugplatz Finsterwalde/Heinrichsruh

Für EDAS sind keine METAR/TAF Berichte vorhanden.
Es werden die Flugwettermeldungen vom Flugplatz Holzdorf Airport in 37 km Entfernung angezeigt.

Bericht für ETSH

vom 28.09. um 22:20 UTC

kein Wind

Sichtweite 10 km oder mehr

aufgebrochene Bewölkung in 6000 ft

Temperatur 10.0°C

Taupunkt 9.0°C

Luftfeuchtigkeit 93%

Luftdruck 1021 hPa

ETSH 282220Z 00000KT 9999 BKN060 10/09 Q1021 BLU

Prognose für ETSH

vom 28.09. um 13:20 UTC

Am 28.09. zwischen 14:00 UTC und 23:00 UTC

Wind 5 kt aus 300°

Sichtweite 10 km oder mehr

keine signifikanten Wettererscheinungen

aufgelockert bewölkt in 3000 ft

aufgebrochene Bewölkung in 25000 ft

TAF ETSH 281320Z 2814/2823 30005KT 9999 NSW SCT030 BKN250
Impressum